Time;durP1;ratioP1;P1;durP2;ratioP2;P2;SDS_P1;SDS_P2;PMS_P1;PMS_P2;Temp;Humidity;BMP_temperature;BMP_pressure;BME280_temperature;BME280_humidity;BME280_pressure;Samples;Min_cycle;Max_cycle;Signal;HPM_P1;HPM_P2
2022/08/26 00:00:08;;;;;;;12.27;3.67;;;;;;;21.77;53.05;95095.84;5045061;28;20025;-84
2022/08/26 00:02:33;;;;;;;11.20;3.25;;;;;;;21.75;53.64;95096.13;5045840;28;20067;-84
2022/08/26 00:04:58;;;;;;;15.23;3.30;;;;;;;21.69;53.74;95089.78;5048375;28;20400;-83
2022/08/26 00:07:24;;;;;;;13.50;3.30;;;;;;;21.67;53.55;95085.66;5049255;28;20450;-84
2022/08/26 00:09:50;;;;;;;10.23;3.30;;;;;;;21.70;53.35;95096.09;5049921;28;20025;-84
2022/08/26 00:12:15;;;;;;;15.52;3.33;;;;;;;21.76;53.61;95091.50;5048804;28;20033;-84
2022/08/26 00:14:41;;;;;;;15.50;4.40;;;;;;;21.68;53.55;95090.03;5050472;28;20025;-83
2022/08/26 00:17:06;;;;;;;13.27;3.08;;;;;;;21.76;54.00;95088.75;5049028;28;20021;-84
2022/08/26 00:19:31;;;;;;;16.08;3.67;;;;;;;21.78;54.23;95092.09;5049895;28;20032;-84
2022/08/26 00:21:57;;;;;;;12.88;4.05;;;;;;;21.75;55.26;95087.94;5049268;28;20306;-84
2022/08/26 00:24:22;;;;;;;11.45;3.33;;;;;;;21.76;54.44;95092.31;5049500;28;20033;-83
2022/08/26 00:26:48;;;;;;;11.45;3.47;;;;;;;21.75;54.96;95096.13;5049705;28;20029;-84
2022/08/26 00:29:13;;;;;;;13.05;3.78;;;;;;;21.75;55.24;95093.38;5048916;28;20032;-84
2022/08/26 00:31:39;;;;;;;15.60;3.40;;;;;;;21.75;55.59;95093.38;5050020;28;20111;-84
2022/08/26 00:34:04;;;;;;;13.77;3.53;;;;;;;21.71;55.25;95095.81;5047185;28;20060;-84
2022/08/26 00:36:30;;;;;;;12.57;3.83;;;;;;;21.65;55.64;95094.09;5049609;28;20049;-84
2022/08/26 00:38:56;;;;;;;13.02;3.30;;;;;;;21.56;56.49;95093.75;5048760;28;20021;-83
2022/08/26 00:41:22;;;;;;;12.38;3.67;;;;;;;21.56;56.43;95095.63;5049396;28;20029;-83
2022/08/26 00:43:47;;;;;;;15.00;3.97;;;;;;;21.49;56.54;95091.19;5048998;28;20041;-83
2022/08/26 00:46:20;;;;;;;12.20;3.40;;;;;;;21.44;56.37;95091.13;5049490;28;20032;-84
2022/08/26 00:48:46;;;;;;;;;;;;;;;21.36;57.13;95086.94;5049527;28;20411;-85
2022/08/26 00:51:17;;;;;;;8.90;2.92;;;;;;;21.21;57.54;95089.50;5047346;28;20387;-82
2022/08/26 00:53:47;;;;;;;16.55;3.83;;;;;;;21.22;57.83;95085.69;5049344;28;20514;-84
2022/08/26 00:56:18;;;;;;;16.98;3.90;;;;;;;21.13;57.57;95093.50;5031220;28;20484;-84
2022/08/26 00:58:44;;;;;;;14.93;3.90;;;;;;;21.05;57.52;95094.75;5031551;28;20056;-84
2022/08/26 01:01:09;;;;;;;18.75;3.88;;;;;;;21.12;57.69;95094.56;5030780;28;20074;-84
2022/08/26 01:03:35;;;;;;;13.00;3.60;;;;;;;21.11;57.82;95095.63;5048837;28;20021;-85
2022/08/26 01:06:00;;;;;;;13.25;3.85;;;;;;;21.06;57.54;95087.38;5047667;28;20033;-84
2022/08/26 01:08:26;;;;;;;14.80;4.35;;;;;;;21.04;57.94;95093.09;5048448;28;20028;-84
2022/08/26 01:10:52;;;;;;;10.45;3.58;;;;;;;20.96;58.52;95080.72;5047851;28;20068;-84
2022/08/26 01:13:17;;;;;;;9.77;3.85;;;;;;;20.96;58.23;95093.53;5047078;28;20530;-83
2022/08/26 01:15:54;;;;;;;11.38;3.63;;;;;;;20.95;58.80;95097.34;5048063;28;20048;-83
2022/08/26 01:18:19;;;;;;;12.13;3.63;;;;;;;20.91;59.51;95096.97;5047073;28;20029;-84
2022/08/26 01:21:14;;;;;;;16.55;4.00;;;;;;;20.88;58.49;95090.13;5048821;28;20575;-84
2022/08/26 01:23:41;;;;;;;13.52;3.88;;;;;;;20.86;57.64;95089.56;5049174;28;20029;-84
2022/08/26 01:26:10;;;;;;;18.98;4.18;;;;;;;20.81;57.86;95091.41;5048054;28;20024;-84
2022/08/26 01:28:37;;;;;;;14.10;4.70;;;;;;;20.83;57.81;95086.53;5031530;28;20083;-84
2022/08/26 01:31:03;;;;;;;13.80;3.65;;;;;;;20.79;57.85;95088.09;5046715;28;20020;-84
2022/08/26 01:33:35;;;;;;;14.98;3.95;;;;;;;20.76;57.73;95081.25;5031348;28;20033;-84
2022/08/26 01:36:00;;;;;;;16.60;3.55;;;;;;;20.71;58.00;95089.34;5046601;28;20053;-84
2022/08/26 01:38:26;;;;;;;13.15;3.88;;;;;;;20.70;58.66;95091.22;5048404;28;20037;-83
2022/08/26 01:40:52;;;;;;;15.63;4.18;;;;;;;20.71;58.39;95078.44;5048424;28;20450;-83
2022/08/26 01:43:19;;;;;;;13.63;3.65;;;;;;;20.70;57.92;95076.81;5046559;28;20558;-83
2022/08/26 01:45:45;;;;;;;21.88;3.20;;;;;;;20.68;58.09;95081.66;5031038;28;20781;-83
2022/08/26 01:48:13;;;;;;;10.80;3.60;;;;;;;20.67;58.36;95077.31;5045959;28;20036;-83
2022/08/26 01:50:38;;;;;;;23.63;5.13;;;;;;;20.60;58.24;95078.28;5048180;28;20028;-82
2022/08/26 01:53:07;;;;;;;9.48;3.60;;;;;;;20.62;58.34;95080.75;5029634;28;20025;-83
2022/08/26 01:55:33;;;;;;;11.07;3.45;;;;;;;20.58;58.27;95085.91;5048866;28;20071;-84
2022/08/26 01:57:59;;;;;;;13.60;3.75;;;;;;;20.59;57.84;95076.63;5047857;28;20184;-84
2022/08/26 02:00:25;;;;;;;12.18;3.50;;;;;;;20.52;58.60;95076.00;5047804;28;20415;-84
2022/08/26 02:03:15;;;;;;;17.00;3.42;;;;;;;20.51;57.91;95074.34;5047919;28;20499;-83
2022/08/26 02:05:38;;;;;;;14.10;3.50;;;;;;;20.40;57.81;95081.53;5045730;28;20040;-84
2022/08/26 02:08:04;;;;;;;19.75;4.30;;;;;;;20.46;57.63;95079.69;5048432;28;20021;-83
2022/08/26 02:10:29;;;;;;;15.27;3.97;;;;;;;20.45;57.63;95081.63;5045703;28;20103;-84
2022/08/26 02:12:54;;;;;;;21.50;4.25;;;;;;;20.41;58.12;95080.44;5047675;28;20028;-84
2022/08/26 02:15:20;;;;;;;12.90;3.90;;;;;;;20.21;58.70;95079.06;5047490;28;20032;-82
2022/08/26 02:17:46;;;;;;;12.85;3.58;;;;;;;20.25;58.90;95082.94;5047561;28;20454;-84
2022/08/26 02:20:13;;;;;;;10.73;4.15;;;;;;;20.30;58.59;95086.78;5029899;28;20079;-85
2022/08/26 02:22:39;;;;;;;14.70;3.53;;;;;;;20.32;58.65;95085.50;5047001;28;20024;-85
2022/08/26 02:25:19;;;;;;;13.07;4.80;;;;;;;20.29;59.22;95074.25;5047972;28;20040;-83
2022/08/26 02:27:45;;;;;;;11.48;3.20;;;;;;;20.33;59.19;95081.69;5046154;28;20036;-82
2022/08/26 02:30:20;;;;;;;17.58;3.97;;;;;;;20.33;58.98;95073.53;5046373;28;20163;-82
2022/08/26 02:32:45;;;;;;;12.40;3.70;;;;;;;20.36;58.95;95074.94;5046350;28;20021;-83
2022/08/26 02:35:12;;;;;;;12.55;3.38;;;;;;;20.37;58.22;95073.84;5046810;28;20056;-83
2022/08/26 02:37:37;;;;;;;13.02;4.38;;;;;;;20.37;58.23;95074.69;5047472;28;20029;-83
2022/08/26 02:40:04;;;;;;;14.43;3.72;;;;;;;20.43;57.94;95074.75;5046468;28;20040;-84
2022/08/26 02:42:29;;;;;;;17.25;3.83;;;;;;;20.39;58.67;95077.16;5047857;28;20029;-83
2022/08/26 02:44:55;;;;;;;13.77;4.15;;;;;;;20.45;58.64;95078.06;5046388;28;20044;-84
2022/08/26 02:47:20;;;;;;;8.63;4.00;;;;;;;20.39;58.63;95077.16;5047623;28;20032;-84
2022/08/26 02:49:46;;;;;;;14.10;3.83;;;;;;;20.42;58.04;95078.56;5046355;28;20036;-83
2022/08/26 02:52:11;;;;;;;10.52;3.20;;;;;;;20.34;58.56;95072.47;5047182;28;20028;-84
2022/08/26 02:54:37;;;;;;;16.77;3.85;;;;;;;20.29;58.40;95074.25;5046665;28;20447;-83
2022/08/26 02:57:04;;;;;;;12.10;4.18;;;;;;;20.29;58.33;95085.16;5046264;28;20032;-85
2022/08/26 02:59:30;;;;;;;16.70;3.70;;;;;;;20.27;57.95;95082.69;5047343;28;20116;-84
2022/08/26 03:01:55;;;;;;;13.20;3.47;;;;;;;20.29;58.17;95091.44;5046295;28;20021;-83
2022/08/26 03:04:21;;;;;;;17.52;4.07;;;;;;;20.19;58.21;95085.81;5047413;28;20492;-82
2022/08/26 03:06:48;;;;;;;16.75;4.43;;;;;;;20.19;58.64;95083.91;5046122;28;20100;-84
2022/08/26 03:09:14;;;;;;;15.52;4.10;;;;;;;20.14;58.59;95094.72;5046685;28;20075;-83
2022/08/26 03:11:39;;;;;;;20.25;4.18;;;;;;;20.05;58.83;95088.88;5046540;28;20029;-84
2022/08/26 03:14:06;;;;;;;20.38;3.92;;;;;;;20.10;58.88;95090.84;5046409;28;20036;-84
2022/08/26 03:16:33;;;;;;;13.27;4.05;;;;;;;20.07;59.08;95083.97;5046626;28;20064;-83
2022/08/26 03:18:59;;;;;;;15.48;4.50;;;;;;;20.01;60.04;95079.50;5046224;28;20021;-84
2022/08/26 03:21:25;;;;;;;16.02;4.63;;;;;;;20.05;59.43;95077.97;5047039;28;20547;-83
2022/08/26 03:23:50;;;;;;;12.43;3.55;;;;;;;20.00;58.92;95077.84;5045994;28;20036;-84
2022/08/26 03:26:16;;;;;;;15.40;4.03;;;;;;;19.99;58.64;95084.38;5046840;28;20058;-83
2022/08/26 03:31:26;;;;;;;17.70;4.25;;;;;;;20.08;58.13;95082.94;5046251;28;20032;-83
2022/08/26 03:33:51;;;;;;;16.55;4.03;;;;;;;20.11;58.03;95089.75;5046797;28;20112;-84
2022/08/26 03:36:16;;;;;;;17.38;3.90;;;;;;;20.12;58.14;95080.53;5043998;28;20044;-83
2022/08/26 03:38:42;;;;;;;13.48;4.53;;;;;;;20.06;58.25;95085.06;5046006;28;20095;-84
2022/08/26 03:41:10;;;;;;;13.90;4.03;;;;;;;20.10;58.64;95082.69;5045576;28;20044;-85
2022/08/26 03:43:36;;;;;;;14.40;3.67;;;;;;;20.14;59.08;95083.81;5046502;28;20028;-84
2022/08/26 03:46:08;;;;;;;12.27;3.78;;;;;;;20.15;58.95;95079.22;5045698;28;20104;-83
2022/08/26 03:48:33;;;;;;;9.32;3.63;;;;;;;20.18;58.69;95084.16;5046434;28;20048;-83
2022/08/26 03:51:00;;;;;;;16.80;3.97;;;;;;;20.17;58.85;95082.53;5046292;28;20507;-86
2022/08/26 03:53:25;;;;;;;12.73;3.90;;;;;;;20.07;59.26;95083.97;5045737;28;20500;-84
2022/08/26 03:55:51;;;;;;;19.13;5.00;;;;;;;20.07;59.15;95078.53;5046870;28;20025;-84
2022/08/26 03:58:16;;;;;;;13.57;4.32;;;;;;;20.03;59.16;95088.28;5045187;28;20066;-83
2022/08/26 04:00:42;;;;;;;14.10;4.72;;;;;;;20.08;58.66;95080.22;5046677;28;20021;-84
2022/08/26 04:03:07;;;;;;;17.27;5.22;;;;;;;20.05;59.41;95090.75;5045641;28;20511;-85
2022/08/26 04:05:33;;;;;;;19.90;4.63;;;;;;;20.09;59.32;95083.72;5046615;28;20082;-84
2022/08/26 04:07:58;;;;;;;16.45;4.90;;;;;;;20.11;59.35;95082.44;5046063;28;20025;-85
2022/08/26 04:10:26;;;;;;;18.13;4.65;;;;;;;20.17;59.34;95075.16;5046148;28;20082;-84
2022/08/26 04:12:52;;;;;;;15.18;4.38;;;;;;;20.18;59.03;95074.13;5046057;28;20552;-84
2022/08/26 04:15:17;;;;;;;11.27;3.85;;;;;;;20.19;58.98;95085.81;5045436;28;20126;-86
2022/08/26 04:17:43;;;;;;;11.70;3.85;;;;;;;20.15;59.22;95082.78;5046619;28;21090;-85
2022/08/26 04:20:09;;;;;;;27.55;5.30;;;;;;;20.15;58.91;95082.78;5045257;28;20055;-84
2022/08/26 04:22:34;;;;;;;13.80;3.80;;;;;;;20.15;58.34;95087.38;5046400;28;20020;-84
2022/08/26 04:25:00;;;;;;;21.95;5.15;;;;;;;20.10;58.92;95078.03;5045568;28;20028;-84
2022/08/26 04:27:25;;;;;;;23.75;4.22;;;;;;;20.16;58.14;95069.97;5046180;28;20033;-84
2022/08/26 04:29:51;;;;;;;16.75;5.15;;;;;;;20.16;58.73;95069.97;5045799;28;20029;-83
2022/08/26 04:32:16;;;;;;;16.80;4.90;;;;;;;20.19;59.10;95074.91;5045709;28;20407;-83
2022/08/26 04:34:42;;;;;;;17.15;4.40;;;;;;;20.25;58.97;95073.94;5045279;28;20407;-83
2022/08/26 04:37:07;;;;;;;13.50;4.88;;;;;;;20.28;59.31;95073.44;5045020;28;20029;-83
2022/08/26 04:39:33;;;;;;;14.93;3.88;;;;;;;20.32;58.75;95080.06;5045913;28;20514;-84
2022/08/26 04:41:58;;;;;;;18.70;4.72;;;;;;;20.38;58.92;95073.59;5044629;28;20479;-84
2022/08/26 04:44:26;;;;;;;20.10;4.50;;;;;;;20.41;58.15;95071.47;5046074;28;20033;-83
2022/08/26 04:46:52;;;;;;;15.10;4.07;;;;;;;20.40;58.25;95086.97;5044372;28;20034;-83
2022/08/26 04:49:17;;;;;;;16.13;4.40;;;;;;;20.41;58.43;95076.91;5045529;28;20039;-83
2022/08/26 04:51:43;;;;;;;16.17;4.90;;;;;;;20.42;58.57;95082.13;5048668;28;20028;-84
2022/08/26 04:54:08;;;;;;;20.67;4.38;;;;;;;20.40;58.40;95075.25;5049002;28;20039;-84
2022/08/26 04:56:38;;;;;;;19.40;4.60;;;;;;;20.46;58.10;95075.09;5049236;28;20024;-84
2022/08/26 04:59:05;;;;;;;17.45;4.60;;;;;;;20.33;58.43;95080.88;5048044;28;20025;-84
2022/08/26 05:01:30;;;;;;;16.77;4.88;;;;;;;20.42;58.36;95079.38;5049409;28;20021;-84
2022/08/26 05:03:56;;;;;;;13.13;4.57;;;;;;;20.42;58.48;95084.00;5048022;28;20541;-83
2022/08/26 05:06:22;;;;;;;16.88;4.53;;;;;;;20.41;58.80;95077.72;5049313;28;20458;-83
2022/08/26 05:08:47;;;;;;;18.50;3.92;;;;;;;20.42;58.86;95079.38;5048427;28;20471;-84
2022/08/26 05:11:13;;;;;;;20.20;5.13;;;;;;;20.46;58.95;95085.13;5048751;28;20028;-84
2022/08/26 05:13:39;;;;;;;18.27;4.25;;;;;;;20.46;59.44;95091.41;5048778;28;20033;-85
2022/08/26 05:16:06;;;;;;;16.98;4.05;;;;;;;20.50;60.17;95092.59;5047645;28;20041;-85
2022/08/26 05:18:32;;;;;;;19.33;4.53;;;;;;;20.59;60.95;95082.09;5049185;28;20099;-83
2022/08/26 05:20:59;;;;;;;13.60;4.32;;;;;;;20.66;60.55;95081.09;5047445;28;20029;-83
2022/08/26 05:23:24;;;;;;;23.85;4.38;;;;;;;20.72;59.25;95085.53;5049242;28;20025;-84
2022/08/26 05:25:51;;;;;;;15.00;4.10;;;;;;;20.79;59.54;95093.53;5046153;28;20392;-83
2022/08/26 05:28:17;;;;;;;17.38;4.55;;;;;;;20.75;59.50;95093.22;5048699;28;20021;-85
2022/08/26 05:30:43;;;;;;;22.42;5.57;;;;;;;20.77;59.98;95091.06;5047918;28;20036;-84
2022/08/26 05:33:08;;;;;;;16.40;4.50;;;;;;;20.80;59.61;95085.09;5048184;28;20021;-84
2022/08/26 05:35:34;;;;;;;18.63;4.78;;;;;;;20.82;59.74;95096.59;5048586;28;20527;-84
2022/08/26 05:38:00;;;;;;;14.80;4.80;;;;;;;20.88;59.85;95098.31;5047120;28;20025;-84
2022/08/26 05:40:26;;;;;;;15.10;4.80;;;;;;;20.94;60.63;95099.22;5048698;28;20032;-83
2022/08/26 05:42:52;;;;;;;17.27;4.85;;;;;;;20.99;59.97;95095.75;5047191;28;20025;-83
2022/08/26 05:45:18;;;;;;;16.95;5.40;;;;;;;21.02;61.21;95091.72;5049075;28;20035;-83
2022/08/26 05:47:44;;;;;;;19.42;5.75;;;;;;;21.08;60.63;95096.97;5047627;28;20471;-84
2022/08/26 05:50:10;;;;;;;20.80;5.22;;;;;;;21.14;59.11;95099.75;5047613;28;20028;-83
2022/08/26 05:52:36;;;;;;;15.80;5.60;;;;;;;21.15;59.45;95098.69;5047687;28;20025;-83
2022/08/26 05:55:02;;;;;;;17.27;4.60;;;;;;;21.14;58.80;95103.31;5047177;28;20496;-83
2022/08/26 05:57:28;;;;;;;14.77;5.38;;;;;;;21.14;59.04;95099.75;5048289;28;20114;-83
2022/08/26 05:59:54;;;;;;;17.08;5.70;;;;;;;21.16;59.16;95101.16;5046743;28;20029;-83
2022/08/26 06:02:19;;;;;;;20.77;6.18;;;;;;;21.18;59.16;95095.47;5047560;28;20510;-83
2022/08/26 06:04:45;;;;;;;27.67;6.68;;;;;;;21.26;58.49;95110.56;5046823;28;20025;-83
2022/08/26 06:07:10;;;;;;;18.77;6.32;;;;;;;21.24;60.06;95102.63;5048319;28;20036;-85
2022/08/26 06:09:36;;;;;;;16.77;6.00;;;;;;;21.29;59.68;95113.59;5047023;28;20409;-84
2022/08/26 06:12:02;;;;;;;20.67;6.30;;;;;;;21.33;59.73;95103.81;5047464;28;20088;-84
2022/08/26 06:14:27;;;;;;;16.23;5.78;;;;;;;21.38;60.72;95102.25;5047630;28;20112;-85
2022/08/26 06:16:53;;;;;;;22.67;6.00;;;;;;;21.48;60.74;95107.81;5046632;28;20036;-84
2022/08/26 06:19:20;;;;;;;21.90;6.20;;;;;;;21.53;59.47;95102.44;5047666;28;20090;-85
2022/08/26 06:21:46;;;;;;;19.77;6.50;;;;;;;21.69;58.52;95100.69;5046337;28;20439;-84
2022/08/26 06:27:00;;;;;;;19.38;5.80;;;;;;;21.90;58.36;95109.13;5046786;28;20495;-83
2022/08/26 06:29:25;;;;;;;18.40;5.25;;;;;;;22.00;58.24;95105.69;5045120;28;20597;-84
2022/08/26 06:31:54;;;;;;;17.23;5.18;;;;;;;22.08;58.27;95110.69;5047741;28;20114;-83
2022/08/26 06:34:19;;;;;;;14.60;5.55;;;;;;;22.08;58.61;95110.69;5045734;28;20432;-82
2022/08/26 06:36:46;;;;;;;20.45;5.82;;;;;;;22.00;58.81;95116.59;5048757;28;20059;-84
2022/08/26 06:39:12;;;;;;;15.73;5.68;;;;;;;21.96;58.83;95115.47;5047424;28;20029;-84
2022/08/26 06:41:37;;;;;;;14.32;4.95;;;;;;;22.01;59.06;95123.72;5048598;28;20506;-83
2022/08/26 06:44:04;;;;;;;12.20;5.35;;;;;;;22.12;58.61;95118.38;5046694;28;20023;-84
2022/08/26 06:46:31;;;;;;;18.92;5.53;;;;;;;22.19;58.91;95118.97;5046747;28;20467;-83
2022/08/26 06:48:59;;;;;;;22.88;5.93;;;;;;;22.29;59.63;95120.97;5047149;28;20064;-84
2022/08/26 06:51:32;;;;;;;22.02;5.60;;;;;;;22.36;59.41;95124.28;5046275;28;20036;-83
2022/08/26 06:54:01;;;;;;;14.90;5.20;;;;;;;22.41;59.19;95118.06;5046088;28;20021;-84
2022/08/26 06:56:31;;;;;;;19.23;5.93;;;;;;;22.48;58.85;95116.78;5045779;28;20028;-83
2022/08/26 06:58:56;;;;;;;17.42;5.47;;;;;;;22.49;59.16;95117.56;5046855;28;20024;-83
2022/08/26 07:01:26;;;;;;;12.88;5.45;;;;;;;22.66;59.63;95112.00;5046400;28;20021;-83
2022/08/26 07:03:53;;;;;;;17.58;5.30;;;;;;;22.66;59.25;95117.47;5046816;28;20052;-84
2022/08/26 07:06:18;;;;;;;19.05;5.18;;;;;;;22.67;58.37;95123.75;5046915;28;20033;-83
2022/08/26 07:08:48;;;;;;;24.55;5.78;;;;;;;22.76;56.89;95121.38;5046044;28;20396;-84
2022/08/26 07:11:13;;;;;;;16.63;5.82;;;;;;;22.62;56.97;95116.34;5047034;28;20057;-83
2022/08/26 07:13:39;;;;;;;14.88;4.45;;;;;;;22.84;57.97;95118.16;5045853;28;20079;-83
2022/08/26 07:16:11;;;;;;;13.55;4.88;;;;;;;22.79;57.21;95113.47;5047210;28;20131;-84
2022/08/26 07:18:36;;;;;;;10.65;4.70;;;;;;;22.86;57.54;95120.63;5045958;28;20032;-84
2022/08/26 07:21:03;;;;;;;22.15;5.97;;;;;;;22.67;57.63;95121.00;5046690;28;20483;-84
2022/08/26 07:23:29;;;;;;;14.00;4.75;;;;;;;22.82;57.01;95121.16;5046335;28;20029;-84
2022/08/26 07:25:55;;;;;;;17.50;4.93;;;;;;;22.93;58.16;95126.66;5046013;28;20446;-84
2022/08/26 07:28:21;;;;;;;15.88;4.72;;;;;;;23.03;57.54;95129.47;5046747;28;20741;-84
2022/08/26 07:30:46;;;;;;;17.63;5.38;;;;;;;23.11;57.71;95130.06;5045568;28;20028;-84
2022/08/26 07:33:12;;;;;;;11.45;4.35;;;;;;;23.17;57.41;95121.63;5047114;28;20507;-84
2022/08/26 07:35:38;;;;;;;12.77;5.65;;;;;;;23.25;57.22;95127.69;5045243;28;20373;-84
2022/08/26 07:38:03;;;;;;;11.13;4.60;;;;;;;23.42;57.35;95127.53;5046237;28;20032;-84
2022/08/26 07:40:29;;;;;;;16.02;4.90;;;;;;;23.45;56.98;95125.09;5045652;28;20484;-83
2022/08/26 07:42:54;;;;;;;21.20;5.03;;;;;;;23.45;56.95;95119.59;5046139;28;20075;-84
2022/08/26 07:45:20;;;;;;;16.27;4.88;;;;;;;23.52;56.39;95122.06;5046220;28;20411;-85
2022/08/26 07:47:46;;;;;;;15.13;4.88;;;;;;;23.55;56.82;95127.00;5045798;28;20151;-84
2022/08/26 07:50:12;;;;;;;17.05;5.43;;;;;;;23.63;56.90;95122.13;5046486;28;20134;-84
2022/08/26 07:52:37;;;;;;;16.83;5.25;;;;;;;23.59;56.86;95116.34;5045038;28;20057;-84
2022/08/26 07:55:03;;;;;;;15.82;4.40;;;;;;;23.61;57.56;95127.03;5046673;28;20033;-84
2022/08/26 07:57:29;;;;;;;15.30;4.75;;;;;;;23.62;56.89;95125.97;5045126;28;20036;-84
2022/08/26 07:59:54;;;;;;;15.77;5.03;;;;;;;23.52;55.34;95122.06;5046143;28;20029;-83
2022/08/26 08:02:20;;;;;;;16.90;4.97;;;;;;;23.64;54.37;95126.50;5045513;28;20021;-84
2022/08/26 08:04:45;;;;;;;15.50;4.18;;;;;;;23.77;53.04;95123.28;5045503;28;20053;-83
2022/08/26 08:07:11;;;;;;;15.27;4.22;;;;;;;23.78;54.07;95124.91;5045964;28;20029;-85
2022/08/26 08:09:36;;;;;;;14.77;4.82;;;;;;;23.86;54.16;95130.97;5044713;28;20439;-83
2022/08/26 08:12:02;;;;;;;16.58;5.20;;;;;;;24.07;55.87;95121.69;5046539;28;20013;-84
2022/08/26 08:14:28;;;;;;;12.77;4.25;;;;;;;24.18;54.20;95122.56;5044791;28;20035;-85
2022/08/26 08:16:53;;;;;;;18.23;4.75;;;;;;;24.12;53.43;95123.63;5045940;28;20021;-85
2022/08/26 08:19:19;;;;;;;17.08;4.07;;;;;;;24.19;54.77;95117.91;5045228;28;20017;-84
2022/08/26 08:21:45;;;;;;;12.80;4.38;;;;;;;24.19;53.88;95118.75;5044326;28;20021;-83
2022/08/26 08:24:11;;;;;;;16.63;4.57;;;;;;;24.21;53.89;95129.44;5045472;28;20029;-84
2022/08/26 08:26:36;;;;;;;16.65;4.00;;;;;;;24.28;52.87;95120.94;5047361;28;20028;-85
2022/08/26 08:29:02;;;;;;;11.05;3.95;;;;;;;24.26;51.71;95123.13;5049679;28;20037;-84
2022/08/26 08:31:31;;;;;;;17.30;4.90;;;;;;;24.19;51.69;95115.16;5048655;28;20511;-83
2022/08/26 08:33:56;;;;;;;25.27;4.90;;;;;;;24.10;51.55;95120.34;5049676;28;20197;-83
2022/08/26 08:36:22;;;;;;;15.93;4.43;;;;;;;24.25;53.55;95126.94;5048209;28;20051;-84
2022/08/26 08:38:47;;;;;;;13.13;4.40;;;;;;;24.39;52.32;95121.78;5049127;28;20033;-84
2022/08/26 08:41:34;;;;;;;16.00;5.05;;;;;;;24.51;52.15;95113.25;5049202;28;20029;-84
2022/08/26 08:43:59;;;;;;;18.60;4.20;;;;;;;24.55;51.56;95104.22;5047629;28;20115;-86
2022/08/26 08:46:24;;;;;;;21.63;4.07;;;;;;;24.59;51.35;95098.19;5049868;28;20484;-84
2022/08/26 08:48:55;;;;;;;16.38;4.32;;;;;;;24.56;51.39;95100.41;5048423;28;20064;-84
2022/08/26 08:51:38;;;;;;;14.68;4.18;;;;;;;24.71;51.28;95104.22;5049956;28;20024;-83
2022/08/26 08:54:04;;;;;;;14.60;4.55;;;;;;;24.83;50.54;95095.69;5047313;28;20090;-85
2022/08/26 08:56:36;;;;;;;18.13;4.40;;;;;;;24.89;48.89;95097.34;5031222;28;20139;-84
2022/08/26 08:59:11;;;;;;;20.80;4.53;;;;;;;24.89;49.08;95093.78;5048677;28;20099;-83
2022/08/26 09:01:42;;;;;;;15.32;4.32;;;;;;;24.87;49.68;95090.47;5048776;28;20434;-83
2022/08/26 09:04:30;;;;;;;15.80;4.63;;;;;;;24.97;48.32;95089.69;5049411;28;20036;-83
2022/08/26 09:06:57;;;;;;;17.50;3.70;;;;;;;25.05;46.67;95086.38;5047414;28;20037;-84
2022/08/26 09:09:46;;;;;;;12.55;3.85;;;;;;;25.04;46.16;95088.28;5031066;28;20032;-85
2022/08/26 09:12:19;;;;;;;15.82;5.03;;;;;;;25.12;47.48;95084.13;5033610;28;20032;-85
2022/08/26 09:14:46;;;;;;;13.98;4.72;;;;;;;25.16;45.78;95088.00;5031867;28;20028;-84
2022/08/26 09:17:17;;;;;;;19.83;4.65;;;;;;;25.20;46.85;95077.25;5048138;28;20031;-84
2022/08/26 09:19:46;;;;;;;21.02;4.78;;;;;;;25.40;47.51;95081.88;5048397;28;20099;-84
2022/08/26 09:22:26;;;;;;;17.77;5.15;;;;;;;25.43;45.24;95073.06;5031137;28;20040;-84
2022/08/26 09:24:54;;;;;;;22.80;4.53;;;;;;;25.39;45.92;95071.97;5048242;28;20025;-85
2022/08/26 09:27:46;;;;;;;23.45;4.78;;;;;;;25.54;46.35;95071.09;5048572;28;20033;-84
2022/08/26 09:30:26;;;;;;;13.95;3.72;;;;;;;25.47;40.98;95069.75;5048515;28;20045;-84
2022/08/26 09:33:05;;;;;;;15.05;3.35;;;;;;;25.45;40.38;95074.69;5047869;28;20037;-84
2022/08/26 09:35:35;;;;;;;22.13;3.78;;;;;;;25.42;39.65;95067.84;5048517;28;20045;-84
2022/08/26 09:38:01;;;;;;;14.00;3.67;;;;;;;25.38;41.15;95069.50;5046925;28;20112;-84
2022/08/26 09:40:29;;;;;;;18.90;3.42;;;;;;;25.38;40.89;95080.47;5048163;28;20179;-84
2022/08/26 09:43:14;;;;;;;25.50;4.65;;;;;;;25.50;40.82;95071.94;5048804;28;20120;-84
2022/08/26 09:45:41;;;;;;;21.08;4.35;;;;;;;25.39;40.49;95079.41;5047449;28;20025;-84
2022/08/26 09:48:06;;;;;;;14.50;3.78;;;;;;;25.39;39.30;95074.72;5048429;28;20505;-84
2022/08/26 09:50:37;;;;;;;19.00;4.43;;;;;;;25.35;40.36;95081.03;5029999;28;20033;-84
2022/08/26 09:53:08;;;;;;;14.10;3.90;;;;;;;25.40;39.73;95073.63;5030754;28;20021;-84
2022/08/26 09:55:34;;;;;;;12.38;3.75;;;;;;;25.52;37.17;95073.28;5048445;28;20036;-83
2022/08/26 09:57:59;;;;;;;9.65;3.70;;;;;;;25.55;36.95;95078.22;5051384;28;20029;-83
2022/08/26 10:00:29;;;;;;;13.38;4.25;;;;;;;25.55;36.41;95072.72;5053934;28;20381;-84
2022/08/26 10:02:56;;;;;;;13.40;4.05;;;;;;;25.61;36.84;95068.03;5054563;28;20503;-84
2022/08/26 10:05:58;;;;;;;17.05;4.25;;;;;;;25.57;37.27;95064.19;5035577;28;20044;-84
2022/08/26 10:08:29;;;;;;;20.48;3.97;;;;;;;25.59;37.31;95059.25;5052987;28;20025;-83
2022/08/26 10:10:57;;;;;;;17.77;3.85;;;;;;;25.63;38.33;95056.81;5054863;28;20452;-84
2022/08/26 10:13:39;;;;;;;17.60;4.32;;;;;;;25.64;37.05;95058.44;5053353;28;20033;-84
2022/08/26 10:16:23;;;;;;;17.75;4.30;;;;;;;25.62;38.40;95064.22;5053707;28;20508;-83
2022/08/26 10:18:53;;;;;;;10.55;3.72;;;;;;;25.68;37.69;95059.53;5055556;28;20067;-85
2022/08/26 10:21:50;;;;;;;11.50;4.28;;;;;;;25.92;38.38;95056.09;5035825;28;20029;-84
2022/08/26 10:24:19;;;;;;;11.50;3.95;;;;;;;25.90;36.42;95052.81;5044896;28;20409;-85
2022/08/26 10:26:44;;;;;;;14.32;5.03;;;;;;;25.84;36.50;95054.78;5046696;28;20039;-83
2022/08/26 10:29:20;;;;;;;16.20;4.20;;;;;;;25.90;35.13;95053.63;5046979;28;20029;-83
2022/08/26 10:31:50;;;;;;;16.60;5.97;;;;;;;25.96;35.00;95059.06;5048195;28;20025;-83
2022/08/26 10:34:16;;;;;;;12.32;4.95;;;;;;;25.99;35.71;95059.31;5045805;28;20503;-85
2022/08/26 10:36:56;;;;;;;14.73;4.57;;;;;;;26.00;35.76;95052.75;5029362;28;20554;-83
2022/08/26 10:39:46;;;;;;;15.68;4.53;;;;;;;26.14;34.83;95058.41;5046157;28;20410;-83
2022/08/26 10:42:26;;;;;;;9.95;4.53;;;;;;;26.17;35.42;95054.25;5045266;28;20056;-84
2022/08/26 10:44:54;;;;;;;14.35;4.82;;;;;;;26.14;34.87;95057.56;5047476;28;20033;-84
2022/08/26 10:47:23;;;;;;;10.93;4.72;;;;;;;26.16;34.92;95055.38;5045072;28;20499;-84
2022/08/26 10:49:48;;;;;;;13.30;5.03;;;;;;;26.08;35.95;95053.22;5029092;28;20116;-84
2022/08/26 10:52:21;;;;;;;12.77;4.68;;;;;;;25.98;35.23;95057.69;5046227;28;20123;-85
2022/08/26 10:55:09;;;;;;;14.18;4.80;;;;;;;26.25;35.96;95053.66;5045230;28;20470;-84
2022/08/26 10:58:11;;;;;;;10.02;4.70;;;;;;;26.48;34.88;95051.28;5047136;28;20515;-84
2022/08/26 11:03:39;;;;;;;12.45;4.13;;;;;;;26.63;37.28;95038.50;5045301;28;20413;-84
2022/08/26 11:06:20;;;;;;;17.90;4.72;;;;;;;26.74;34.99;95041.97;5046008;28;20033;-84
2022/08/26 11:08:53;;;;;;;15.97;4.70;;;;;;;26.71;34.17;95031.56;5046249;28;20032;-83
2022/08/26 11:11:44;;;;;;;13.57;4.35;;;;;;;26.91;35.03;95039.59;5046161;28;20301;-83
2022/08/26 11:14:18;;;;;;;13.05;4.47;;;;;;;26.96;33.86;95038.72;5047082;28;20024;-85
2022/08/26 11:16:48;;;;;;;13.80;4.78;;;;;;;27.01;34.87;95037.88;5045727;28;20071;-84
2022/08/26 11:19:29;;;;;;;8.63;3.90;;;;;;;26.95;33.60;95037.09;5045517;28;20064;-84
2022/08/26 11:22:04;;;;;;;11.25;4.32;;;;;;;26.93;33.67;95027.47;5046203;28;20021;-84
2022/08/26 11:24:51;;;;;;;12.55;4.25;;;;;;;26.92;33.04;95026.66;5045796;28;20491;-83
2022/08/26 11:27:35;;;;;;;12.50;4.55;;;;;;;26.87;33.10;95029.47;5047157;28;20045;-83
2022/08/26 11:30:07;;;;;;;12.90;4.70;;;;;;;26.85;32.91;95021.50;5046170;28;20033;-83
2022/08/26 11:32:32;;;;;;;11.55;5.03;;;;;;;27.04;33.98;95031.78;5047056;28;20523;-85
2022/08/26 11:34:59;;;;;;;14.48;4.43;;;;;;;27.11;34.42;95023.19;5045336;28;20052;-82
2022/08/26 11:37:46;;;;;;;9.00;4.07;;;;;;;27.16;32.80;95025.88;5046635;28;20514;-83
2022/08/26 11:40:14;;;;;;;17.45;4.43;;;;;;;27.32;32.10;95020.16;5046485;28;20029;-84